Cairo, Ohio
Current Conditions -  °F | °C
As of 5:53 AM on Saturday 25 Oct 2014 (Local Time) from KAOH Reporting Station
Broken Clouds Broken Clouds  
Wind Chill: 53°   Ceiling: 10000
Heat Index: 53°   Visibility: 7mi
Dew Point: 48°   Wind: 7mph
Humidity: 83%   Direction: 200°SSW
Pressure: 29.95"   Gusts: NA
Location:  40.83°N, 84.09°W
Report Text: KAOH 250953Z AUTO 20006KT 7SM FEW080 BKN100 12/09 A2995 RMK AO2 SLP140 T01170089
Loading
Personal Weather Stations






























Interactive Weather Map
Tropical Storm Tracking
New forecast layout! Learn more

10-Day Weather Forecast

Advertisements
Track Severe Weather on mobile